createdAt,value
2017-04-14T00:00:57.583Z,12.15
2017-04-14T00:01:56.517Z,13.28
2017-04-14T00:02:55.420Z,9.38
2017-04-14T00:03:54.324Z,7.15
2017-04-14T00:04:53.236Z,12.72
2017-04-14T00:05:52.142Z,10.90
2017-04-14T00:06:51.080Z,15.15
2017-04-14T00:07:49.979Z,10.93
2017-04-14T00:08:48.903Z,11.97
2017-04-14T00:09:47.800Z,13.63
2017-04-14T00:10:46.736Z,13.90
2017-04-14T00:11:45.644Z,11.27
2017-04-14T00:12:44.588Z,11.33
2017-04-14T00:13:43.508Z,14.43
2017-04-14T00:14:42.405Z,11.85
2017-04-14T00:15:41.308Z,16.43
2017-04-14T00:16:40.204Z,17.62
2017-04-14T00:17:39.079Z,11.47
2017-04-14T00:18:38.007Z,11.08
2017-04-14T00:19:36.889Z,12.32
2017-04-14T00:20:35.797Z,14.58
2017-04-14T00:21:34.690Z,13.48
2017-04-14T00:22:33.632Z,10.72
2017-04-14T00:23:32.532Z,15.37
2017-04-14T00:24:31.422Z,15.03
2017-04-14T00:25:30.324Z,13.10
2017-04-14T00:26:29.208Z,10.90
2017-04-14T00:27:28.100Z,13.88
2017-04-14T00:28:27.072Z,14.22
2017-04-14T00:29:25.965Z,12.62
2017-04-14T00:30:24.870Z,13.30
2017-04-14T00:31:23.771Z,12.07
2017-04-14T00:32:22.675Z,11.62
2017-04-14T00:33:21.573Z,14.38
2017-04-14T00:34:20.488Z,12.32
2017-04-14T00:35:19.380Z,13.25
2017-04-14T00:36:18.263Z,14.22
2017-04-14T00:37:17.141Z,11.57
2017-04-14T00:38:16.067Z,16.87
2017-04-14T00:39:14.971Z,14.38
2017-04-14T00:40:13.885Z,12.67
2017-04-14T00:41:12.779Z,14.35
2017-04-14T00:42:11.655Z,17.16
2017-04-14T00:43:10.556Z,11.83
2017-04-14T00:44:09.460Z,11.00
2017-04-14T00:45:08.344Z,11.88
2017-04-14T00:46:07.247Z,19.40
2017-04-14T00:47:06.200Z,13.48
2017-04-14T00:48:05.095Z,11.45
2017-04-14T00:49:03.993Z,11.28
2017-04-14T00:50:03.132Z,10.00
2017-04-14T00:51:02.017Z,14.22
2017-04-14T00:52:00.920Z,13.20
2017-04-14T00:52:59.801Z,12.83
2017-04-14T00:53:58.684Z,16.30
2017-04-14T00:54:57.580Z,13.70
2017-04-14T00:55:56.467Z,19.55
2017-04-14T00:56:55.348Z,12.90
2017-04-14T00:57:54.255Z,14.62
2017-04-14T00:58:53.144Z,15.67
2017-04-14T00:59:52.032Z,10.48
2017-04-14T01:00:50.903Z,9.23
2017-04-14T01:01:49.809Z,18.63
2017-04-14T01:02:48.703Z,16.45
2017-04-14T01:03:47.636Z,13.95
2017-04-14T01:04:46.548Z,13.92
2017-04-14T01:05:45.451Z,12.96
2017-04-14T01:06:44.331Z,14.07
2017-04-14T01:07:43.225Z,11.28
2017-04-14T01:08:42.108Z,18.45
2017-04-14T01:09:41.018Z,16.70
2017-04-14T01:10:39.993Z,18.40
2017-04-14T01:11:38.892Z,11.90
2017-04-14T01:12:37.795Z,14.02
2017-04-14T01:13:36.687Z,13.08
2017-04-14T01:14:35.573Z,13.17
2017-04-14T01:15:34.538Z,14.38
2017-04-14T01:16:33.452Z,15.37
2017-04-14T01:17:32.332Z,12.03
2017-04-14T01:18:31.220Z,13.93
2017-04-14T01:19:30.120Z,9.15
2017-04-14T01:20:29.019Z,13.18
2017-04-14T01:21:27.921Z,11.53
2017-04-14T01:22:26.791Z,12.33
2017-04-14T01:23:25.696Z,12.45
2017-04-14T01:24:24.592Z,15.75
2017-04-14T01:25:23.484Z,13.92
2017-04-14T01:26:22.356Z,13.73
2017-04-14T01:27:21.256Z,14.77
2017-04-14T01:28:20.168Z,14.02
2017-04-14T01:29:19.060Z,11.43
2017-04-14T01:30:17.943Z,11.42
2017-04-14T01:31:16.824Z,11.93
2017-04-14T01:32:15.731Z,14.68
2017-04-14T01:33:14.670Z,12.52
2017-04-14T01:34:13.562Z,18.50
2017-04-14T01:35:12.448Z,15.93
2017-04-14T01:36:11.352Z,14.07
2017-04-14T01:37:10.253Z,10.55
2017-04-14T01:38:09.136Z,12.73
2017-04-14T01:39:08.036Z,18.48
2017-04-14T01:40:06.915Z,13.95
2017-04-14T01:41:05.808Z,13.77
2017-04-14T01:42:04.759Z,12.88
2017-04-14T01:43:03.680Z,14.55
2017-04-14T01:44:02.598Z,15.08
2017-04-14T01:45:01.516Z,14.35
2017-04-14T01:46:00.385Z,10.23
2017-04-14T01:46:59.263Z,16.43
2017-04-14T01:47:58.253Z,13.52
2017-04-14T01:48:57.119Z,10.05
2017-04-14T01:49:56.023Z,13.67
2017-04-14T01:50:54.949Z,12.25
2017-04-14T01:51:53.879Z,12.13
2017-04-14T01:52:52.795Z,14.55
2017-04-14T01:53:51.688Z,14.12
2017-04-14T01:54:50.595Z,15.35
2017-04-14T01:55:49.488Z,10.17
2017-04-14T01:56:48.413Z,14.72
2017-04-14T01:57:47.307Z,12.80
2017-04-14T01:58:46.228Z,11.55
2017-04-14T01:59:45.121Z,15.18
2017-04-14T02:00:44.052Z,15.30
2017-04-14T02:01:42.927Z,11.12
2017-04-14T02:02:41.819Z,12.32
2017-04-14T02:03:40.728Z,11.80
2017-04-14T02:04:39.611Z,15.55
2017-04-14T02:05:38.508Z,16.50
2017-04-14T02:06:37.391Z,16.83
2017-04-14T02:07:36.292Z,12.90
2017-04-14T02:08:35.203Z,13.72
2017-04-14T02:09:34.083Z,11.02
2017-04-14T02:10:32.964Z,13.42
2017-04-14T02:11:31.866Z,14.12
2017-04-14T02:12:30.740Z,11.50
2017-04-14T02:13:29.629Z,12.40
2017-04-14T02:14:28.568Z,13.70
2017-04-14T02:15:27.472Z,10.93
2017-04-14T02:16:26.360Z,15.03
2017-04-14T02:17:25.243Z,17.87
2017-04-14T02:18:24.132Z,13.45
2017-04-14T02:19:23.019Z,11.95
2017-04-14T02:20:21.938Z,15.08
2017-04-14T02:21:20.819Z,15.00
2017-04-14T02:22:19.703Z,12.67
2017-04-14T02:23:18.612Z,17.30
2017-04-14T02:24:17.519Z,13.47
2017-04-14T02:25:16.399Z,14.52
2017-04-14T02:26:15.301Z,14.32
2017-04-14T02:27:14.180Z,17.28
2017-04-14T02:28:13.099Z,12.88
2017-04-14T02:29:12.002Z,12.38
2017-04-14T02:30:10.903Z,11.38
2017-04-14T02:31:09.792Z,16.62
2017-04-14T02:32:08.729Z,14.47
2017-04-14T02:33:07.604Z,14.03
2017-04-14T02:34:06.488Z,14.17
2017-04-14T02:35:05.385Z,15.72
2017-04-14T02:36:04.263Z,15.05
2017-04-14T02:37:03.144Z,15.05
2017-04-14T02:38:02.035Z,14.47
2017-04-14T02:39:00.969Z,13.93
2017-04-14T02:39:59.908Z,13.97
2017-04-14T02:40:58.791Z,13.03
2017-04-14T02:41:57.671Z,19.42
2017-04-14T02:42:56.555Z,15.48
2017-04-14T02:43:55.486Z,10.25
2017-04-14T02:44:54.364Z,14.32
2017-04-14T02:45:53.247Z,19.73
2017-04-14T02:46:52.125Z,14.18
2017-04-14T02:47:51.027Z,12.40
2017-04-14T02:48:49.931Z,14.40
2017-04-14T02:49:48.819Z,15.62
2017-04-14T02:50:47.699Z,13.17
2017-04-14T02:51:46.580Z,17.05
2017-04-14T02:52:45.465Z,14.00
2017-04-14T02:53:44.339Z,10.77
2017-04-14T02:54:43.217Z,15.35
2017-04-14T02:55:42.116Z,17.32
2017-04-14T02:56:41.028Z,12.22
2017-04-14T02:57:39.922Z,17.18
2017-04-14T02:58:38.788Z,16.08
2017-04-14T02:59:37.658Z,15.58
2017-04-14T03:00:36.547Z,15.70
2017-04-14T03:01:35.450Z,15.42
2017-04-14T03:02:34.337Z,19.73
2017-04-14T03:03:33.237Z,14.12
2017-04-14T03:04:32.172Z,18.55
2017-04-14T03:05:31.095Z,12.33
2017-04-14T03:06:29.993Z,15.30
2017-04-14T03:07:28.896Z,14.02
2017-04-14T03:08:27.787Z,19.08
2017-04-14T03:09:26.668Z,16.03
2017-04-14T03:10:25.545Z,21.10
2017-04-14T03:11:24.441Z,14.98
2017-04-14T03:12:23.332Z,19.05
2017-04-14T03:13:22.240Z,17.23
2017-04-14T03:14:21.135Z,16.05
2017-04-14T03:15:20.004Z,16.25
2017-04-14T03:16:18.897Z,15.35
2017-04-14T03:17:17.800Z,16.78
2017-04-14T03:18:16.669Z,19.90
2017-04-14T03:19:15.575Z,17.63
2017-04-14T03:20:14.464Z,14.20
2017-04-14T03:21:13.363Z,20.37
2017-04-14T03:22:12.251Z,15.78
2017-04-14T03:23:11.125Z,13.15
2017-04-14T03:24:10.005Z,19.12
2017-04-14T03:25:08.912Z,16.05
2017-04-14T03:26:07.800Z,17.97
2017-04-14T03:27:06.692Z,18.73
2017-04-14T03:28:05.581Z,17.40
2017-04-14T03:29:04.468Z,14.12
2017-04-14T03:30:03.368Z,17.60
2017-04-14T03:31:02.271Z,21.43
2017-04-14T03:32:01.148Z,16.23
2017-04-14T03:33:00.019Z,17.58
2017-04-14T03:33:58.903Z,14.63
2017-04-14T03:34:57.774Z,16.83
2017-04-14T03:35:56.645Z,20.92
2017-04-14T03:36:55.552Z,15.48
2017-04-14T03:37:54.443Z,14.40
2017-04-14T03:38:53.359Z,16.17
2017-04-14T03:39:52.234Z,18.52
2017-04-14T03:40:51.131Z,23.00
2017-04-14T03:41:50.023Z,16.93
2017-04-14T03:42:48.932Z,20.40
2017-04-14T03:43:47.802Z,22.02
2017-04-14T03:44:46.691Z,17.25
2017-04-14T03:45:45.593Z,18.57
2017-04-14T03:46:44.495Z,18.05
2017-04-14T03:47:43.372Z,17.23
2017-04-14T03:48:42.264Z,22.78
2017-04-14T03:49:41.149Z,16.27
2017-04-14T03:50:40.047Z,17.17
2017-04-14T03:51:38.936Z,21.82
2017-04-14T03:52:37.854Z,15.93
2017-04-14T03:53:36.976Z,18.08
2017-04-14T03:54:35.884Z,16.18
2017-04-14T03:55:34.763Z,18.85
2017-04-14T03:56:33.640Z,17.70
2017-04-14T03:57:32.559Z,18.12
2017-04-14T03:58:31.447Z,18.65
2017-04-14T03:59:30.507Z,18.63
2017-04-14T04:00:29.523Z,18.12
2017-04-14T04:01:28.411Z,18.15
2017-04-14T04:02:27.291Z,19.63
2017-04-14T04:03:26.188Z,23.02
2017-04-14T04:04:25.079Z,14.32
2017-04-14T04:05:23.996Z,14.62
2017-04-14T04:06:22.921Z,17.35
2017-04-14T04:07:21.800Z,17.12
2017-04-14T04:08:20.687Z,21.60
2017-04-14T04:09:19.568Z,22.45
2017-04-14T04:10:18.447Z,18.02
2017-04-14T04:11:17.328Z,17.80
2017-04-14T04:12:16.232Z,17.15
2017-04-14T04:13:15.139Z,20.20
2017-04-14T04:14:14.029Z,18.30
2017-04-14T04:15:12.904Z,16.67
2017-04-14T04:16:11.771Z,15.32
2017-04-14T04:17:10.674Z,16.22
2017-04-14T04:18:09.575Z,20.95
2017-04-14T04:19:08.456Z,14.95
2017-04-14T04:20:07.348Z,18.90
2017-04-14T04:21:06.235Z,22.50
2017-04-14T04:22:05.129Z,21.20
2017-04-14T04:23:04.008Z,19.13
2017-04-14T04:24:02.919Z,17.68
2017-04-14T04:25:01.826Z,19.75
2017-04-14T04:26:00.727Z,17.35
2017-04-14T04:26:59.611Z,20.33
2017-04-14T04:27:58.515Z,19.45
2017-04-14T04:28:57.422Z,17.15
2017-04-14T04:29:56.335Z,19.13
2017-04-14T04:30:55.204Z,15.55
2017-04-14T04:31:59.317Z,19.18
2017-04-14T04:35:07.885Z,20.55
2017-04-14T04:36:06.782Z,17.03
2017-04-14T04:37:05.676Z,18.93
2017-04-14T04:38:04.573Z,19.72
2017-04-14T04:39:03.825Z,14.85
2017-04-14T04:40:02.746Z,16.85
2017-04-14T04:41:01.676Z,16.82
2017-04-14T04:42:00.580Z,19.78
2017-04-14T04:42:59.527Z,20.67
2017-04-14T04:43:58.447Z,17.87
2017-04-14T04:44:57.319Z,24.47
2017-04-14T04:45:56.207Z,15.50
2017-04-14T04:46:55.136Z,16.80
2017-04-14T04:47:54.047Z,19.15
2017-04-14T04:48:52.925Z,20.33
2017-04-14T04:49:51.824Z,21.92
2017-04-14T04:50:50.719Z,20.10
2017-04-14T04:51:49.592Z,20.43
2017-04-14T04:52:48.497Z,20.95
2017-04-14T04:53:47.383Z,16.82
2017-04-14T04:54:46.297Z,20.82
2017-04-14T04:55:45.219Z,16.23
2017-04-14T04:56:44.109Z,18.47
2017-04-14T04:57:42.993Z,17.58
2017-04-14T04:58:41.886Z,18.77
2017-04-14T04:59:40.784Z,20.72
2017-04-14T05:00:39.695Z,21.75
2017-04-14T05:01:38.596Z,20.28
2017-04-14T05:02:37.501Z,17.55
2017-04-14T05:03:36.380Z,16.95
2017-04-14T05:04:35.275Z,18.95
2017-04-14T05:05:34.215Z,17.22
2017-04-14T05:06:33.096Z,21.20
2017-04-14T05:07:31.980Z,15.85
2017-04-14T05:08:30.868Z,18.73
2017-04-14T05:09:29.775Z,14.70
2017-04-14T05:10:28.700Z,17.52
2017-04-14T05:11:27.560Z,16.67
2017-04-14T05:12:26.480Z,15.93
2017-04-14T05:13:25.344Z,15.42
2017-04-14T05:14:24.256Z,23.07
2017-04-14T05:15:23.152Z,15.92
2017-04-14T05:16:22.048Z,19.30
2017-04-14T05:17:20.947Z,14.83
2017-04-14T05:18:19.855Z,19.53
2017-04-14T05:19:18.733Z,16.68
2017-04-14T05:20:17.631Z,18.60
2017-04-14T05:21:16.520Z,15.87
2017-04-14T05:22:15.428Z,18.02
2017-04-14T05:23:14.365Z,14.52
2017-04-14T05:24:13.256Z,17.95
2017-04-14T05:25:12.143Z,21.82
2017-04-14T05:26:11.069Z,14.93
2017-04-14T05:27:10.028Z,16.30
2017-04-14T05:28:08.925Z,13.58
2017-04-14T05:29:07.818Z,15.02
2017-04-14T05:30:06.729Z,13.70
2017-04-14T05:31:05.623Z,17.25
2017-04-14T05:32:04.532Z,15.87
2017-04-14T05:33:03.435Z,17.85
2017-04-14T05:34:02.345Z,15.70
2017-04-14T05:35:01.228Z,13.73
2017-04-14T05:36:00.126Z,15.35
2017-04-14T05:37:00.016Z,15.75
2017-04-14T05:37:58.896Z,20.68
2017-04-14T05:38:57.791Z,17.83
2017-04-14T05:39:56.719Z,13.55
2017-04-14T05:40:55.603Z,17.73
2017-04-14T05:41:54.487Z,12.74
2017-04-14T05:42:53.360Z,14.60
2017-04-14T05:43:52.243Z,21.55
2017-04-14T05:44:51.140Z,18.48
2017-04-14T05:45:50.036Z,15.55
2017-04-14T05:46:48.919Z,13.92
2017-04-14T05:47:47.832Z,12.50
2017-04-14T05:48:46.728Z,15.80
2017-04-14T05:49:45.632Z,15.12
2017-04-14T05:50:44.557Z,16.22
2017-04-14T05:51:43.791Z,15.05
2017-04-14T05:52:42.716Z,17.02
2017-04-14T05:53:41.608Z,19.65
2017-04-14T05:54:40.483Z,14.77
2017-04-14T05:55:39.356Z,17.43
2017-04-14T05:56:38.248Z,14.98
2017-04-14T05:57:37.153Z,12.78
2017-04-14T05:58:36.037Z,12.37
2017-04-14T06:00:40.115Z,16.55
2017-04-14T06:01:39.023Z,13.00
2017-04-14T06:02:37.927Z,12.88
2017-04-14T06:03:36.811Z,14.82
2017-04-14T06:04:35.687Z,14.85
2017-04-14T06:05:34.571Z,14.60
2017-04-14T06:06:33.477Z,13.97
2017-04-14T06:07:32.369Z,17.42
2017-04-14T06:08:31.377Z,16.65
2017-04-14T06:09:30.274Z,14.87
2017-04-14T06:10:29.173Z,13.45
2017-04-14T06:11:28.046Z,15.47
2017-04-14T06:12:26.927Z,17.47
2017-04-14T06:13:25.832Z,14.10
2017-04-14T06:14:24.747Z,15.18
2017-04-14T06:15:23.685Z,10.23
2017-04-14T06:16:22.568Z,9.72
2017-04-14T06:17:21.505Z,12.73
2017-04-14T06:18:20.449Z,14.17
2017-04-14T06:19:19.352Z,15.08
2017-04-14T06:20:18.240Z,15.60
2017-04-14T06:21:17.136Z,11.27
2017-04-14T06:22:16.025Z,15.03
2017-04-14T06:23:14.970Z,12.90
2017-04-14T06:24:13.860Z,14.73
2017-04-14T06:25:12.748Z,16.15
2017-04-14T06:26:11.674Z,12.50
2017-04-14T06:27:10.547Z,11.88
2017-04-14T06:28:09.432Z,12.43
2017-04-14T06:29:08.303Z,14.32
2017-04-14T06:30:07.244Z,11.32
2017-04-14T06:31:06.148Z,12.85
2017-04-14T06:32:05.067Z,11.50
2017-04-14T06:33:03.973Z,15.60
2017-04-14T06:34:02.857Z,13.27
2017-04-14T06:35:01.732Z,13.72
2017-04-14T06:36:00.623Z,10.48
2017-04-14T06:36:59.512Z,11.43
2017-04-14T06:37:58.432Z,14.47
2017-04-14T06:38:57.321Z,13.03
2017-04-14T06:39:56.201Z,12.03
2017-04-14T06:40:55.137Z,17.95
2017-04-14T06:41:54.036Z,13.22
2017-04-14T06:42:52.928Z,15.28
2017-04-14T06:43:51.820Z,12.06
2017-04-14T06:44:50.705Z,12.32
2017-04-14T06:45:49.621Z,15.02
2017-04-14T06:46:48.492Z,15.35
2017-04-14T06:47:47.371Z,12.18
2017-04-14T06:48:46.244Z,11.08
2017-04-14T06:49:45.168Z,17.05
2017-04-14T06:50:44.096Z,15.10
2017-04-14T06:51:42.999Z,10.52
2017-04-14T06:52:41.869Z,16.55
2017-04-14T06:53:40.753Z,19.80
2017-04-14T06:54:39.643Z,16.43
2017-04-14T06:55:38.553Z,12.23
2017-04-14T06:56:37.448Z,10.55
2017-04-14T06:57:36.318Z,10.12
2017-04-14T06:58:35.219Z,10.80
2017-04-14T06:59:34.146Z,13.35
2017-04-14T07:00:33.117Z,9.63
2017-04-14T07:01:32.024Z,15.55
2017-04-14T07:02:32.015Z,12.72
2017-04-14T07:03:30.944Z,13.42
2017-04-14T07:04:29.884Z,13.17
2017-04-14T07:05:28.755Z,12.42
2017-04-14T07:06:27.680Z,14.25
2017-04-14T07:07:26.616Z,14.65
2017-04-14T07:08:25.508Z,13.72
2017-04-14T07:09:24.429Z,14.20
2017-04-14T07:10:23.292Z,8.08
2017-04-14T07:11:22.182Z,9.95
2017-04-14T07:12:21.072Z,13.92
2017-04-14T07:13:20.205Z,9.87
2017-04-14T07:14:19.100Z,11.38
2017-04-14T07:15:18.003Z,15.30
2017-04-14T07:16:16.913Z,12.15
2017-04-14T07:17:15.831Z,13.62
2017-04-14T07:18:14.704Z,9.78
2017-04-14T07:19:13.655Z,9.87
2017-04-14T07:20:12.559Z,12.22
2017-04-14T07:21:11.444Z,11.00
2017-04-14T07:22:10.327Z,9.20
2017-04-14T07:23:09.219Z,14.57
2017-04-14T07:24:08.127Z,11.12
2017-04-14T07:25:07.077Z,10.90
2017-04-14T07:26:06.053Z,9.55
2017-04-14T07:27:04.966Z,9.54
2017-04-14T07:28:03.872Z,11.90
2017-04-14T07:29:02.775Z,11.57
2017-04-14T07:30:01.656Z,12.10
2017-04-14T07:31:00.590Z,9.10
2017-04-14T07:31:59.472Z,12.55
2017-04-14T07:32:58.497Z,11.35
2017-04-14T07:33:57.407Z,13.58
2017-04-14T07:34:56.307Z,10.87
2017-04-14T07:35:55.196Z,13.60
2017-04-14T07:36:54.256Z,8.95
2017-04-14T07:37:53.136Z,9.05
2017-04-14T07:38:53.034Z,11.38
2017-04-14T07:39:51.938Z,9.12
2017-04-14T07:40:50.856Z,13.50
2017-04-14T07:41:49.773Z,8.08
2017-04-14T07:42:48.720Z,10.65
2017-04-14T07:43:47.627Z,10.12
2017-04-14T07:44:46.536Z,10.23
2017-04-14T07:45:45.407Z,8.55
2017-04-14T07:46:44.404Z,8.65
2017-04-14T07:47:43.295Z,6.55
2017-04-14T07:48:42.215Z,9.03
2017-04-14T07:49:41.091Z,7.78
2017-04-14T07:50:40.003Z,9.80
2017-04-14T07:51:38.904Z,8.95
2017-04-14T07:52:37.831Z,8.20
2017-04-14T07:53:36.719Z,8.20
2017-04-14T07:54:35.631Z,8.65
2017-04-14T07:55:34.523Z,9.13
2017-04-14T07:56:33.447Z,8.43
2017-04-14T07:57:32.327Z,7.73
2017-04-14T07:58:31.215Z,6.98
2017-04-14T07:59:30.110Z,6.90
2017-04-14T08:00:29.069Z,7.18
2017-04-14T08:01:27.997Z,8.43
2017-04-14T08:02:26.929Z,7.00
2017-04-14T08:03:25.873Z,7.30
2017-04-14T08:04:24.766Z,7.70
2017-04-14T08:05:23.655Z,7.63
2017-04-14T08:06:22.564Z,7.98
2017-04-14T08:07:21.462Z,8.90
2017-04-14T08:08:20.350Z,9.40
2017-04-14T08:09:19.259Z,9.72
2017-04-14T08:10:18.152Z,9.05
2017-04-14T08:11:17.059Z,11.85
2017-04-14T08:12:15.965Z,9.72
2017-04-14T08:13:14.868Z,7.72
2017-04-14T08:14:13.762Z,9.48
2017-04-14T08:15:12.664Z,4.95
2017-04-14T08:16:11.588Z,7.58
2017-04-14T08:17:10.489Z,8.75
2017-04-14T08:18:09.435Z,7.92
2017-04-14T08:19:08.353Z,7.30
2017-04-14T08:20:07.255Z,6.25
2017-04-14T08:21:06.139Z,7.47
2017-04-14T08:22:05.018Z,5.50
2017-04-14T08:23:03.908Z,7.42
2017-04-14T08:24:02.828Z,5.55
2017-04-14T08:25:01.704Z,4.85
2017-04-14T08:26:00.592Z,7.35
2017-04-14T08:26:59.512Z,7.28
2017-04-14T08:27:58.437Z,5.37
2017-04-14T08:28:57.329Z,8.42
2017-04-14T08:29:56.252Z,8.38
2017-04-14T08:30:55.136Z,10.57
2017-04-14T08:31:54.081Z,7.03
2017-04-14T08:32:52.968Z,7.42
2017-04-14T08:33:51.899Z,8.72
2017-04-14T08:34:50.771Z,9.60
2017-04-14T08:35:49.667Z,6.85
2017-04-14T08:36:48.567Z,7.57
2017-04-14T08:37:47.467Z,4.27
2017-04-14T08:38:46.360Z,6.05
2017-04-14T08:39:45.269Z,7.03
2017-04-14T08:40:44.156Z,5.60
2017-04-14T08:41:43.088Z,6.23
2017-04-14T08:42:41.975Z,6.53
2017-04-14T08:43:40.932Z,4.52
2017-04-14T08:44:39.835Z,5.34
2017-04-14T08:45:38.784Z,7.90
2017-04-14T08:46:37.674Z,6.35
2017-04-14T08:47:36.613Z,5.28
2017-04-14T08:48:35.508Z,8.18
2017-04-14T08:49:34.388Z,6.43
2017-04-14T08:50:33.276Z,5.68
2017-04-14T08:51:32.180Z,5.35
2017-04-14T08:52:31.156Z,6.90
2017-04-14T08:53:30.087Z,7.47
2017-04-14T08:54:29.113Z,7.73
2017-04-14T08:55:28.004Z,6.32
2017-04-14T08:56:26.979Z,4.85
2017-04-14T08:57:25.913Z,6.12
2017-04-14T08:58:24.883Z,9.68
2017-04-14T08:59:23.802Z,6.23
2017-04-14T09:00:22.695Z,6.45
2017-04-14T09:01:21.600Z,8.88
2017-04-14T09:02:20.484Z,6.77
2017-04-14T09:03:19.373Z,6.02
2017-04-14T09:04:18.581Z,6.42
2017-04-14T09:05:17.503Z,5.50
2017-04-14T09:06:16.411Z,6.50
2017-04-14T09:07:15.296Z,5.87
2017-04-14T09:08:14.224Z,6.75
2017-04-14T09:09:13.116Z,6.00
2017-04-14T09:10:12.103Z,6.48
2017-04-14T09:11:11.108Z,7.05
2017-04-14T09:12:10.112Z,4.77
2017-04-14T09:13:08.999Z,5.83
2017-04-14T09:14:07.901Z,4.75
2017-04-14T09:15:06.817Z,9.35
2017-04-14T09:16:05.727Z,4.72
2017-04-14T09:17:04.647Z,7.78
2017-04-14T09:18:03.555Z,6.13
2017-04-14T09:19:02.457Z,5.93
2017-04-14T09:20:01.357Z,6.87
2017-04-14T09:21:00.258Z,7.68
2017-04-14T09:21:59.148Z,6.08
2017-04-14T09:22:58.080Z,5.57
2017-04-14T09:23:56.944Z,7.37
2017-04-14T09:24:55.847Z,6.72
2017-04-14T09:25:54.722Z,5.90
2017-04-14T09:26:53.605Z,5.82
2017-04-14T09:27:52.543Z,6.68
2017-04-14T09:28:51.519Z,5.52
2017-04-14T09:29:50.495Z,7.63
2017-04-14T09:30:49.391Z,5.58
2017-04-14T09:31:48.344Z,6.32
2017-04-14T09:32:47.231Z,6.28
2017-04-14T09:33:46.140Z,6.43
2017-04-14T09:34:45.063Z,7.17
2017-04-14T09:35:43.975Z,5.62
2017-04-14T09:36:42.888Z,7.08
2017-04-14T09:37:42.960Z,6.37
2017-04-14T09:38:41.852Z,8.13
2017-04-14T09:39:40.751Z,8.27
2017-04-14T09:40:39.735Z,5.07
2017-04-14T09:41:38.644Z,6.10
2017-04-14T09:42:37.540Z,3.73
2017-04-14T09:43:36.448Z,7.68
2017-04-14T09:44:35.543Z,6.55
2017-04-14T09:45:34.448Z,8.40
2017-04-14T09:46:33.368Z,5.47
2017-04-14T09:47:32.384Z,7.53
2017-04-14T09:48:31.283Z,6.58
2017-04-14T09:49:30.160Z,5.90
2017-04-14T09:50:29.078Z,8.58
2017-04-14T09:51:28.083Z,6.70
2017-04-14T09:52:26.999Z,6.90
2017-04-14T09:53:25.904Z,7.25
2017-04-14T09:54:24.843Z,5.35
2017-04-14T09:55:23.744Z,4.98
2017-04-14T09:56:22.620Z,5.98
2017-04-14T09:57:21.548Z,4.28
2017-04-14T09:58:20.473Z,3.90
2017-04-14T09:59:19.395Z,4.15
2017-04-14T10:00:18.317Z,3.83
2017-04-14T10:01:17.209Z,3.77
2017-04-14T10:02:16.099Z,3.82
2017-04-14T10:03:14.984Z,4.32
2017-04-14T10:04:13.904Z,4.17
2017-04-14T10:05:12.813Z,5.15
2017-04-14T10:06:11.692Z,5.52
2017-04-14T10:07:10.583Z,4.73
2017-04-14T10:08:09.459Z,3.20
2017-04-14T10:09:08.410Z,3.60
2017-04-14T10:10:07.300Z,3.05
2017-04-14T10:11:06.203Z,5.05
2017-04-14T10:12:05.096Z,3.45
2017-04-14T10:13:04.003Z,3.12
2017-04-14T10:14:02.891Z,2.70
2017-04-14T10:15:01.846Z,3.17
2017-04-14T10:16:00.743Z,1.95
2017-04-14T10:16:59.639Z,4.00
2017-04-14T10:17:58.544Z,4.28
2017-04-14T10:18:57.601Z,3.20
2017-04-14T10:19:56.501Z,2.52
2017-04-14T10:20:55.411Z,4.48
2017-04-14T10:21:54.323Z,3.90
2017-04-14T10:22:53.223Z,3.75
2017-04-14T10:23:52.148Z,4.25
2017-04-14T10:24:51.047Z,3.73
2017-04-14T10:25:49.991Z,4.40
2017-04-14T10:26:48.905Z,3.62
2017-04-14T10:27:47.786Z,3.73
2017-04-14T10:28:46.693Z,3.40
2017-04-14T10:29:45.591Z,4.50
2017-04-14T10:30:44.503Z,3.95
2017-04-14T10:31:43.405Z,3.10
2017-04-14T10:32:42.325Z,5.13
2017-04-14T10:33:41.212Z,4.77
2017-04-14T10:34:40.095Z,4.23
2017-04-14T10:35:39.024Z,3.90
2017-04-14T10:36:38.234Z,4.25
2017-04-14T10:37:37.174Z,4.22
2017-04-14T10:38:36.645Z,3.50
2017-04-14T10:39:35.564Z,4.22
2017-04-14T10:40:34.831Z,3.32
2017-04-14T10:41:33.958Z,4.52
2017-04-14T10:42:32.849Z,4.92
2017-04-14T10:43:31.767Z,4.35
2017-04-14T10:44:30.733Z,3.83
2017-04-14T10:45:30.302Z,3.90
2017-04-14T10:46:29.271Z,3.32
2017-04-14T10:47:28.190Z,3.83
2017-04-14T10:48:27.103Z,4.50
2017-04-14T10:49:25.992Z,5.43
2017-04-14T10:50:24.945Z,5.35
2017-04-14T10:51:23.852Z,3.57
2017-04-14T10:52:22.784Z,4.67
2017-04-14T10:53:21.695Z,4.48
2017-04-14T10:54:20.665Z,3.07
2017-04-14T10:55:19.562Z,7.30
2017-04-14T10:56:18.511Z,4.28
2017-04-14T10:57:17.422Z,4.30
2017-04-14T10:58:16.334Z,5.13
2017-04-14T10:59:15.239Z,7.02
2017-04-14T11:00:14.123Z,5.17
2017-04-14T11:01:13.017Z,5.50
2017-04-14T11:02:11.927Z,5.28
2017-04-14T11:03:10.832Z,5.95
2017-04-14T11:04:09.747Z,4.52
2017-04-14T11:05:08.655Z,6.73
2017-04-14T11:06:07.920Z,8.00
2017-04-14T11:07:06.847Z,7.27
2017-04-14T11:08:05.803Z,5.45
2017-04-14T11:09:05.252Z,5.27
2017-04-14T11:10:04.185Z,5.73
2017-04-14T11:11:03.080Z,5.53
2017-04-14T11:12:02.012Z,6.68
2017-04-14T11:13:00.939Z,6.10
2017-04-14T11:13:59.858Z,6.03
2017-04-14T11:14:58.783Z,4.82
2017-04-14T11:15:57.683Z,6.02
2017-04-14T11:16:56.572Z,6.68
2017-04-14T11:17:55.474Z,5.17
2017-04-14T11:18:54.378Z,7.48
2017-04-14T11:19:53.285Z,6.50
2017-04-14T11:20:52.181Z,9.20
2017-04-14T11:21:51.079Z,6.25
2017-04-14T11:22:49.960Z,5.48
2017-04-14T11:23:48.872Z,5.40
2017-04-14T11:24:47.820Z,7.40
2017-04-14T11:25:46.750Z,6.18
2017-04-14T11:26:45.652Z,5.65
2017-04-14T11:27:44.563Z,6.87
2017-04-14T11:28:43.448Z,6.78
2017-04-14T11:29:42.327Z,8.07
2017-04-14T11:30:41.232Z,5.50
2017-04-14T11:31:40.123Z,8.90
2017-04-14T11:32:39.023Z,6.93
2017-04-14T11:33:37.928Z,8.27
2017-04-14T11:34:36.823Z,7.12
2017-04-14T11:35:35.816Z,6.02
2017-04-14T11:36:34.704Z,6.78
2017-04-14T11:37:33.635Z,8.82
2017-04-14T11:38:32.525Z,7.05
2017-04-14T11:39:31.431Z,7.90
2017-04-14T11:40:30.334Z,8.57
2017-04-14T11:41:29.316Z,7.80
2017-04-14T11:42:28.231Z,6.70
2017-04-14T11:43:27.163Z,8.02
2017-04-14T11:44:26.069Z,8.67
2017-04-14T11:45:25.081Z,9.72
2017-04-14T11:46:23.988Z,7.88
2017-04-14T11:47:23.010Z,7.72
2017-04-14T11:48:21.989Z,11.03
2017-04-14T11:49:20.888Z,8.62
2017-04-14T11:50:19.809Z,7.47
2017-04-14T11:51:18.707Z,11.22
2017-04-14T11:52:17.715Z,7.78
2017-04-14T11:53:16.638Z,9.48
2017-04-14T11:54:15.567Z,13.80
2017-04-14T11:55:14.496Z,11.33
2017-04-14T11:56:13.368Z,8.33
2017-04-14T11:57:12.273Z,7.92
2017-04-14T11:58:11.185Z,9.00
2017-04-14T11:59:10.147Z,8.38
2017-04-14T12:00:09.084Z,8.60
2017-04-14T12:01:08.206Z,8.58
2017-04-14T12:02:07.208Z,8.87
2017-04-14T12:03:06.119Z,8.45
2017-04-14T12:04:04.998Z,9.58
2017-04-14T12:05:03.918Z,8.72
2017-04-14T12:06:02.817Z,11.92
2017-04-14T12:07:01.985Z,10.22
2017-04-14T12:08:00.876Z,8.58
2017-04-14T12:08:59.777Z,10.13
2017-04-14T12:09:58.903Z,9.40
2017-04-14T12:10:57.822Z,10.10
2017-04-14T12:11:56.748Z,11.55
2017-04-14T12:12:55.640Z,11.67
2017-04-14T12:13:54.612Z,10.98
2017-04-14T12:14:53.495Z,11.83
2017-04-14T12:15:52.377Z,10.40
2017-04-14T12:16:51.303Z,11.80
2017-04-14T12:17:50.234Z,12.62
2017-04-14T12:18:49.164Z,10.33
2017-04-14T12:19:48.098Z,9.87
2017-04-14T12:20:47.002Z,12.77
2017-04-14T12:21:45.945Z,11.58
2017-04-14T12:22:44.879Z,11.68
2017-04-14T12:23:43.792Z,10.78
2017-04-14T12:24:42.784Z,11.82
2017-04-14T12:25:41.836Z,11.12
2017-04-14T12:26:40.760Z,10.97
2017-04-14T12:27:39.674Z,12.07
2017-04-14T12:28:38.633Z,13.03
2017-04-14T12:29:37.557Z,12.18
2017-04-14T12:30:36.513Z,10.82
2017-04-14T12:31:35.476Z,10.62
2017-04-14T12:32:34.585Z,10.77
2017-04-14T12:33:33.519Z,13.30
2017-04-14T12:34:32.422Z,11.18
2017-04-14T12:35:31.357Z,11.08
2017-04-14T12:36:30.304Z,11.88
2017-04-14T12:37:29.215Z,13.43
2017-04-14T12:38:28.124Z,12.20
2017-04-14T12:39:27.076Z,10.73
2017-04-14T12:40:26.003Z,9.88
2017-04-14T12:41:24.960Z,11.20
2017-04-14T12:42:23.912Z,9.28
2017-04-14T12:43:22.848Z,10.12
2017-04-14T12:44:21.748Z,8.95
2017-04-14T12:45:20.689Z,10.45
2017-04-14T12:46:19.611Z,9.76
2017-04-14T12:47:18.551Z,9.63
2017-04-14T12:48:17.473Z,9.77
2017-04-14T12:49:16.445Z,9.73
2017-04-14T12:50:15.405Z,9.47
2017-04-14T12:51:14.336Z,9.42
2017-04-14T12:52:13.248Z,9.17